Time;durP1;ratioP1;P1;durP2;ratioP2;P2;SDS_P1;SDS_P2;PMS_P1;PMS_P2;Temp;Humidity;BMP_temperature;BMP_pressure;BME280_temperature;BME280_humidity;BME280_pressure;Samples;Min_cycle;Max_cycle;Signal;HPM_P1;HPM_P2
2024/01/19 00:00:10;;;;;;;36.42;15.88;;;-1.30;99.90;;;;;;5020021;28;20379;-79
2024/01/19 00:02:36;;;;;;;35.28;17.63;;;-1.30;99.90;;;;;;5027491;28;20060;-79
2024/01/19 00:05:03;;;;;;;30.98;15.43;;;-1.30;99.90;;;;;;5025400;28;20102;-80
2024/01/19 00:07:29;;;;;;;33.15;17.30;;;-1.40;99.90;;;;;;5028055;28;20457;-79
2024/01/19 00:09:55;;;;;;;35.95;17.90;;;-1.40;99.90;;;;;;5025961;28;20151;-79
2024/01/19 00:12:21;;;;;;;41.88;17.65;;;-1.40;99.90;;;;;;5019269;28;20406;-79
2024/01/19 00:14:47;;;;;;;40.08;19.83;;;-1.40;99.90;;;;;;5021902;28;20014;-80
2024/01/19 00:17:12;;;;;;;36.50;19.30;;;-1.40;99.90;;;;;;5028190;28;20386;-79
2024/01/19 00:19:38;;;;;;;41.63;21.85;;;-1.40;99.90;;;;;;5026602;28;20044;-80
2024/01/19 00:22:04;;;;;;;38.10;19.25;;;-1.40;99.90;;;;;;5025360;28;20058;-80
2024/01/19 00:24:29;;;;;;;39.90;18.70;;;-1.50;99.90;;;;;;5017887;28;20030;-79
2024/01/19 00:26:55;;;;;;;42.78;19.48;;;-1.50;99.90;;;;;;5024819;28;20025;-80
2024/01/19 00:29:21;;;;;;;41.65;21.38;;;-1.50;99.90;;;;;;5018005;28;20026;-79
2024/01/19 00:31:48;;;;;;;41.72;20.73;;;-1.50;99.90;;;;;;5025581;28;20026;-79
2024/01/19 00:34:14;;;;;;;47.15;21.80;;;-1.50;99.90;;;;;;5017675;28;20568;-80
2024/01/19 00:36:41;;;;;;;44.13;20.00;;;-1.50;99.90;;;;;;5021548;28;20025;-79
2024/01/19 00:39:07;;;;;;;43.13;20.65;;;-1.50;99.90;;;;;;5019550;28;20078;-80
2024/01/19 00:41:32;;;;;;;41.28;20.85;;;-1.60;99.90;;;;;;5013245;28;20042;-79
2024/01/19 00:43:58;;;;;;;45.30;21.70;;;-1.60;99.90;;;;;;5020873;28;20102;-79
2024/01/19 00:46:24;;;;;;;40.97;19.45;;;-1.60;99.90;;;;;;5030351;28;20471;-79
2024/01/19 00:48:49;;;;;;;43.00;20.70;;;-1.60;99.90;;;;;;5026113;28;20567;-79
2024/01/19 00:51:16;;;;;;;46.53;22.17;;;-1.60;99.90;;;;;;5029247;28;20030;-79
2024/01/19 00:53:43;;;;;;;45.38;22.42;;;-1.60;99.90;;;;;;5024176;28;20029;-78
2024/01/19 00:56:08;;;;;;;45.15;21.13;;;-1.60;99.90;;;;;;5028040;27;20063;-79
2024/01/19 00:58:39;;;;;;;44.95;20.63;;;-1.60;99.90;;;;;;5026132;28;20041;-79
2024/01/19 01:01:04;;;;;;;46.55;21.05;;;-1.60;99.90;;;;;;5029235;28;20036;-79
2024/01/19 01:03:30;;;;;;;46.92;22.55;;;-1.60;99.90;;;;;;5020274;28;20093;-79
2024/01/19 01:05:57;;;;;;;46.38;20.90;;;-1.70;99.90;;;;;;5013494;28;20049;-79
2024/01/19 01:08:27;;;;;;;46.92;19.95;;;-1.70;99.90;;;;;;5013497;28;20026;-80
2024/01/19 01:10:54;;;;;;;51.03;22.38;;;-1.70;99.90;;;;;;5016832;28;20022;-79
2024/01/19 01:13:20;;;;;;;49.05;22.17;;;-1.70;99.90;;;;;;5018550;28;20410;-78
2024/01/19 01:15:46;;;;;;;45.00;21.27;;;-1.70;99.90;;;;;;5015773;28;20395;-79
2024/01/19 01:18:12;;;;;;;40.35;20.90;;;-1.70;99.90;;;;;;5017459;28;20029;-78
2024/01/19 01:20:38;;;;;;;44.05;21.25;;;-1.70;99.90;;;;;;5013957;28;20091;-78
2024/01/19 01:23:04;;;;;;;49.08;23.05;;;-1.70;99.90;;;;;;5021870;28;20403;-78
2024/01/19 01:25:31;;;;;;;44.60;20.13;;;-1.80;99.90;;;;;;5023491;28;20029;-79
2024/01/19 01:27:56;;;;;;;48.20;22.52;;;-1.80;99.90;;;;;;5022208;28;20018;-79
2024/01/19 01:30:23;;;;;;;47.22;23.35;;;-1.80;99.90;;;;;;5023982;28;20467;-79
2024/01/19 01:32:49;;;;;;;51.67;21.90;;;-1.80;99.90;;;;;;5012620;28;20426;-80
2024/01/19 01:35:14;;;;;;;40.10;19.50;;;-1.80;99.90;;;;;;5015341;28;20057;-79
2024/01/19 01:37:40;;;;;;;46.88;21.38;;;-1.80;99.90;;;;;;5022387;28;20372;-79
2024/01/19 01:40:07;;;;;;;50.25;21.80;;;-1.80;99.90;;;;;;5022461;28;20036;-80
2024/01/19 01:42:33;;;;;;;39.38;20.38;;;-1.80;99.90;;;;;;5012746;28;20026;-79
2024/01/19 01:45:00;;;;;;;40.92;18.48;;;-1.80;99.90;;;;;;5023211;28;20075;-79
2024/01/19 01:47:26;;;;;;;37.67;17.83;;;-1.80;99.90;;;;;;5016023;28;20045;-79
2024/01/19 01:49:53;;;;;;;49.40;21.88;;;-1.80;99.90;;;;;;5023906;28;20029;-79
2024/01/19 01:52:19;;;;;;;38.85;20.13;;;-1.80;99.90;;;;;;5013365;28;20025;-79
2024/01/19 01:54:45;;;;;;;46.53;19.73;;;-1.80;99.90;;;;;;5011188;28;20539;-79
2024/01/19 01:57:11;;;;;;;44.17;20.80;;;-1.80;99.90;;;;;;5024681;28;20303;-79
2024/01/19 01:59:37;;;;;;;40.72;20.05;;;-1.80;99.90;;;;;;5028763;28;20064;-79
2024/01/19 02:02:03;;;;;;;49.92;21.27;;;-1.80;99.90;;;;;;5028498;28;20034;-79
2024/01/19 02:04:30;;;;;;;49.55;22.40;;;-1.80;99.90;;;;;;5030904;28;20082;-79
2024/01/19 02:06:55;;;;;;;50.88;20.48;;;-1.90;99.90;;;;;;5030034;28;20061;-79
2024/01/19 02:09:21;;;;;;;40.75;20.08;;;-1.90;99.90;;;;;;5030582;28;20475;-79
2024/01/19 02:11:47;;;;;;;41.28;20.38;;;-1.90;99.90;;;;;;5029512;28;20014;-80
2024/01/19 02:14:13;;;;;;;40.08;19.17;;;-1.90;99.90;;;;;;5028656;28;20543;-79
2024/01/19 02:16:38;;;;;;;38.05;17.05;;;-2.00;99.90;;;;;;5026008;28;20518;-79
2024/01/19 02:19:04;;;;;;;35.70;16.10;;;-2.00;99.90;;;;;;5028920;28;20097;-79
2024/01/19 02:21:30;;;;;;;41.03;16.63;;;-2.00;99.90;;;;;;5027622;28;20099;-80
2024/01/19 02:24:02;;;;;;;39.38;17.45;;;-2.00;99.90;;;;;;5030473;28;20545;-79
2024/01/19 02:26:30;;;;;;;34.33;17.17;;;-2.00;99.90;;;;;;5027865;28;20086;-79
2024/01/19 02:28:55;;;;;;;36.45;14.98;;;-1.90;99.90;;;;;;5023408;28;20050;-79
2024/01/19 02:31:21;;;;;;;30.60;15.23;;;-2.00;99.90;;;;;;5015877;28;20101;-79
2024/01/19 02:33:47;;;;;;;30.98;16.02;;;-2.00;99.90;;;;;;5020779;28;20022;-79
2024/01/19 02:36:12;;;;;;;27.30;14.02;;;-2.10;99.90;;;;;;5024139;28;20018;-79
2024/01/19 02:38:38;;;;;;;34.30;15.85;;;-2.10;99.90;;;;;;5027214;27;20021;-79
2024/01/19 02:41:04;;;;;;;37.30;17.13;;;-2.10;99.90;;;;;;5021662;28;20105;-79
2024/01/19 02:43:29;;;;;;;31.17;15.05;;;-2.10;99.90;;;;;;5020588;28;20113;-80
2024/01/19 02:45:55;;;;;;;34.38;15.18;;;-2.10;99.90;;;;;;5016923;28;20029;-80
2024/01/19 02:48:21;;;;;;;35.05;16.83;;;-2.20;99.90;;;;;;5026109;28;20021;-78
2024/01/19 02:50:46;;;;;;;35.08;16.35;;;-2.10;99.90;;;;;;5023702;28;20028;-78
2024/01/19 02:53:12;;;;;;;31.08;15.45;;;-2.20;99.90;;;;;;5025646;28;20375;-79
2024/01/19 02:55:37;;;;;;;31.15;14.38;;;-2.20;99.90;;;;;;5022991;28;20463;-79
2024/01/19 02:58:03;;;;;;;25.73;14.05;;;-2.20;99.90;;;;;;5017799;28;20105;-79
2024/01/19 03:00:29;;;;;;;29.83;15.85;;;-2.20;99.90;;;;;;5012676;28;20490;-80
2024/01/19 03:02:55;;;;;;;31.40;12.18;;;-2.30;99.90;;;;;;5019815;28;20044;-80
2024/01/19 03:05:20;;;;;;;29.60;14.05;;;-2.30;99.90;;;;;;5023679;28;20132;-79
2024/01/19 03:07:46;;;;;;;31.15;15.05;;;-2.20;99.90;;;;;;5024326;28;20025;-79
2024/01/19 03:10:12;;;;;;;34.50;15.52;;;-2.20;99.90;;;;;;5022414;28;20039;-79
2024/01/19 03:12:37;;;;;;;32.50;14.65;;;-2.10;99.90;;;;;;5022724;28;20025;-79
2024/01/19 03:15:04;;;;;;;36.50;16.40;;;-2.10;99.90;;;;;;5022809;28;20022;-79
2024/01/19 03:17:32;;;;;;;33.40;15.00;;;-2.10;99.90;;;;;;5021862;28;20056;-79
2024/01/19 03:19:59;;;;;;;33.20;14.65;;;-2.10;99.90;;;;;;5022258;28;20025;-79
2024/01/19 03:22:24;;;;;;;34.55;16.25;;;-2.20;99.90;;;;;;5014953;28;20125;-79
2024/01/19 03:24:50;;;;;;;36.83;15.23;;;-2.20;99.90;;;;;;5020490;28;20101;-79
2024/01/19 03:27:16;;;;;;;27.85;13.80;;;-2.20;99.90;;;;;;5017704;28;20067;-79
2024/01/19 03:29:41;;;;;;;34.42;14.50;;;-2.20;99.90;;;;;;5023640;28;20021;-79
2024/01/19 03:32:07;;;;;;;34.10;15.05;;;-2.20;99.90;;;;;;5018137;28;20022;-79
2024/01/19 03:34:32;;;;;;;27.05;13.70;;;-2.20;99.90;;;;;;5016415;28;20026;-79
2024/01/19 03:37:03;;;;;;;27.85;14.27;;;-2.20;99.90;;;;;;5014198;28;20050;-79
2024/01/19 03:39:32;;;;;;;32.55;14.82;;;-2.20;99.90;;;;;;5025869;28;20026;-78
2024/01/19 03:41:58;;;;;;;33.33;14.93;;;-2.20;99.90;;;;;;5015917;28;20033;-79
2024/01/19 03:44:24;;;;;;;28.00;14.02;;;-2.20;99.90;;;;;;5012010;28;20501;-79
2024/01/19 03:46:50;;;;;;;27.00;13.18;;;-2.20;99.90;;;;;;5012680;28;20100;-79
2024/01/19 03:49:16;;;;;;;23.60;12.48;;;-2.20;99.90;;;;;;5020461;28;20025;-79
2024/01/19 03:52:03;;;;;;;32.30;13.93;;;-2.30;99.90;;;;;;5015036;28;20029;-79
2024/01/19 03:54:29;;;;;;;25.50;12.75;;;-2.20;99.90;;;;;;5011130;28;20030;-79
2024/01/19 03:56:58;;;;;;;24.05;11.85;;;-2.20;99.90;;;;;;5007667;28;20118;-78
2024/01/19 03:59:24;;;;;;;32.75;15.10;;;-2.30;99.90;;;;;;5013693;28;20014;-78
2024/01/19 04:01:50;;;;;;;29.30;13.88;;;-2.20;99.90;;;;;;5018603;28;20799;-78
2024/01/19 04:04:16;;;;;;;26.55;12.70;;;-2.30;99.90;;;;;;5021811;28;20483;-80
2024/01/19 04:06:42;;;;;;;23.13;12.40;;;-2.30;99.90;;;;;;5021158;28;20025;-79
2024/01/19 04:09:08;;;;;;;29.52;13.38;;;-2.30;99.90;;;;;;5009106;28;20025;-78
2024/01/19 04:11:34;;;;;;;22.20;12.63;;;-2.30;99.90;;;;;;5024265;28;20026;-78
2024/01/19 04:14:00;;;;;;;26.13;11.77;;;-2.40;99.90;;;;;;5015964;28;20017;-78
2024/01/19 04:16:26;;;;;;;26.63;12.48;;;-2.40;99.90;;;;;;5019799;28;20391;-79
2024/01/19 04:18:51;;;;;;;21.23;11.32;;;-2.40;99.90;;;;;;5023940;28;20022;-79
2024/01/19 04:21:17;;;;;;;25.90;11.70;;;-2.40;99.90;;;;;;5010403;28;20063;-78
2024/01/19 04:23:44;;;;;;;25.13;12.52;;;-2.50;99.90;;;;;;5010136;28;20018;-78
2024/01/19 04:26:10;;;;;;;25.13;11.40;;;-2.50;99.90;;;;;;5009951;28;20075;-78
2024/01/19 04:28:36;;;;;;;22.65;11.43;;;-2.50;99.90;;;;;;5009341;28;20442;-78
2024/01/19 04:31:02;;;;;;;22.33;13.05;;;-2.60;99.90;;;;;;5013846;28;20102;-78
2024/01/19 04:33:28;;;;;;;20.73;11.30;;;-2.60;99.90;;;;;;5018887;28;20525;-78
2024/01/19 04:35:53;;;;;;;18.38;10.18;;;-2.70;99.90;;;;;;5008648;28;20026;-78
2024/01/19 04:38:19;;;;;;;24.73;14.20;;;-2.80;99.90;;;;;;5010500;28;20034;-78
2024/01/19 04:40:44;;;;;;;24.20;13.15;;;-2.90;99.90;;;;;;5010103;28;20067;-78
2024/01/19 04:43:10;;;;;;;21.52;10.65;;;-2.90;99.90;;;;;;5008775;28;20033;-78
2024/01/19 04:45:36;;;;;;;20.58;10.05;;;-2.90;99.90;;;;;;5009996;28;20018;-79
2024/01/19 04:48:02;;;;;;;21.80;10.73;;;-2.90;99.90;;;;;;5010103;28;20527;-79
2024/01/19 04:50:28;;;;;;;17.83;9.73;;;-2.80;99.90;;;;;;5010798;28;20148;-78
2024/01/19 04:52:53;;;;;;;24.45;10.65;;;-2.90;99.90;;;;;;5010444;28;20041;-78
2024/01/19 04:55:19;;;;;;;18.58;10.38;;;-2.90;99.90;;;;;;5009231;28;20044;-78
2024/01/19 04:57:45;;;;;;;17.25;9.15;;;-2.80;99.90;;;;;;5008920;28;20029;-78
2024/01/19 05:00:12;;;;;;;16.50;9.45;;;-2.80;99.90;;;;;;5009781;28;20026;-79
2024/01/19 05:02:37;;;;;;;18.83;9.05;;;-2.80;99.90;;;;;;5009566;28;20040;-79
2024/01/19 05:05:03;;;;;;;17.42;9.40;;;-2.90;99.90;;;;;;5007904;28;20046;-79
2024/01/19 05:07:29;;;;;;;20.98;9.45;;;-2.90;99.90;;;;;;5018364;28;20021;-78
2024/01/19 05:09:55;;;;;;;16.20;10.80;;;-2.90;99.90;;;;;;5022147;28;20383;-79
2024/01/19 05:12:21;;;;;;;20.45;10.23;;;-2.90;99.90;;;;;;5021285;28;20022;-79
2024/01/19 05:14:47;;;;;;;20.20;10.45;;;-2.90;99.90;;;;;;5018990;28;20013;-79
2024/01/19 05:17:13;;;;;;;134.80;54.72;;;-2.90;99.90;;;;;;5018012;28;20010;-80
2024/01/19 05:19:39;;;;;;;84.53;31.83;;;-2.90;99.90;;;;;;5021271;28;20494;-78
2024/01/19 05:22:04;;;;;;;57.00;21.20;;;-3.00;99.90;;;;;;5021182;28;20398;-79
2024/01/19 05:24:30;;;;;;;454.98;153.07;;;-3.00;99.90;;;;;;5022335;28;20089;-79
2024/01/19 05:26:55;;;;;;;906.80;335.23;;;-3.00;99.90;;;;;;5022517;27;20028;-79
2024/01/19 05:29:22;;;;;;;711.42;249.10;;;-3.00;99.90;;;;;;5021073;28;20074;-79
2024/01/19 05:31:48;;;;;;;1105.32;392.27;;;-3.00;99.90;;;;;;5021024;28;20010;-81
2024/01/19 05:34:14;;;;;;;514.35;150.18;;;-3.00;99.90;;;;;;5022723;28;20097;-81
2024/01/19 05:36:40;;;;;;;1228.75;429.75;;;-3.00;99.90;;;;;;5021829;28;20022;-81
2024/01/19 05:39:09;;;;;;;472.98;146.13;;;-3.00;99.90;;;;;;5021888;28;20424;-79
2024/01/19 05:41:35;;;;;;;268.95;76.38;;;-3.00;99.90;;;;;;5019485;28;20022;-79
2024/01/19 05:44:01;;;;;;;535.00;173.27;;;-3.00;99.90;;;;;;5017168;28;20028;-80
2024/01/19 05:46:26;;;;;;;590.10;200.35;;;-2.90;99.90;;;;;;5017665;28;20018;-80
2024/01/19 05:48:52;;;;;;;311.92;90.00;;;-2.90;99.90;;;;;;5022173;28;20049;-80
2024/01/19 05:51:18;;;;;;;581.83;196.38;;;-2.90;99.90;;;;;;5020121;28;20018;-80
2024/01/19 05:53:44;;;;;;;1393.57;533.78;;;-2.90;99.90;;;;;;5021925;28;20482;-80
2024/01/19 05:56:10;;;;;;;1129.53;453.25;;;-2.90;99.90;;;;;;5020563;28;20021;-80
2024/01/19 05:58:36;;;;;;;104.70;34.42;;;-2.90;99.90;;;;;;5021337;28;20021;-79
2024/01/19 06:01:02;;;;;;;211.43;72.07;;;-2.80;99.90;;;;;;5015942;28;20043;-79
2024/01/19 06:03:35;;;;;;;812.10;333.88;;;-2.90;99.90;;;;;;5014517;28;20022;-78
2024/01/19 06:06:02;;;;;;;436.02;150.82;;;-2.90;99.90;;;;;;5021256;28;20052;-79
2024/01/19 06:08:29;;;;;;;497.35;174.23;;;-2.90;99.90;;;;;;5017690;28;20021;-79
2024/01/19 06:10:55;;;;;;;872.22;353.40;;;-2.90;99.90;;;;;;5011376;28;20399;-78
2024/01/19 06:13:20;;;;;;;92.97;31.38;;;-2.80;99.90;;;;;;5025930;28;20025;-79
2024/01/19 06:15:46;;;;;;;684.90;268.63;;;-2.90;99.90;;;;;;5014106;28;20033;-78
2024/01/19 06:18:12;;;;;;;125.85;49.85;;;-2.90;99.90;;;;;;5018444;28;20029;-81
2024/01/19 06:20:41;;;;;;;96.07;37.13;;;-2.90;99.90;;;;;;5010534;28;20041;-79
2024/01/19 06:23:08;;;;;;;324.83;117.07;;;-2.80;99.90;;;;;;5018006;28;20136;-79
2024/01/19 06:25:34;;;;;;;37.40;16.85;;;-2.90;99.90;;;;;;5019915;28;20025;-78
2024/01/19 06:28:02;;;;;;;472.92;187.73;;;-2.90;99.90;;;;;;5017498;28;20805;-78
2024/01/19 06:30:27;;;;;;;116.55;44.85;;;-3.00;99.90;;;;;;5018399;28;20174;-78
2024/01/19 06:32:53;;;;;;;40.67;19.13;;;-3.00;99.90;;;;;;5009510;28;20531;-78
2024/01/19 06:35:20;;;;;;;78.22;32.45;;;-2.90;99.90;;;;;;5010419;28;20033;-79
2024/01/19 06:37:46;;;;;;;49.58;19.65;;;-2.90;99.90;;;;;;5011133;28;20066;-79
2024/01/19 06:40:14;;;;;;;94.07;37.10;;;-3.00;99.90;;;;;;5013738;28;20037;-79
2024/01/19 06:42:41;;;;;;;146.65;57.72;;;-3.00;99.90;;;;;;5013746;28;20069;-78
2024/01/19 06:45:07;;;;;;;66.80;29.98;;;-3.10;99.90;;;;;;5012545;28;20037;-79
2024/01/19 06:47:33;;;;;;;35.97;16.60;;;-3.10;99.90;;;;;;5019160;28;20096;-79
2024/01/19 06:49:58;;;;;;;42.15;17.88;;;-3.00;99.90;;;;;;5012754;28;20103;-79
2024/01/19 06:52:24;;;;;;;23.92;12.07;;;-3.00;99.90;;;;;;5017403;28;20029;-84
2024/01/19 06:54:50;;;;;;;31.13;14.52;;;-3.10;99.90;;;;;;5014971;28;20018;-80
2024/01/19 06:57:15;;;;;;;26.73;13.63;;;-3.00;99.90;;;;;;5016741;28;20471;-79
2024/01/19 06:59:41;;;;;;;22.98;11.45;;;-3.00;99.90;;;;;;5009539;28;20083;-79
2024/01/19 07:02:07;;;;;;;26.17;13.48;;;-2.90;99.90;;;;;;5011200;28;20053;-79
2024/01/19 07:04:33;;;;;;;25.33;12.25;;;-2.90;99.90;;;;;;5011203;28;20053;-79
2024/01/19 07:06:59;;;;;;;16.65;9.02;;;-2.90;99.90;;;;;;5010241;28;20097;-79
2024/01/19 07:09:26;;;;;;;18.92;9.13;;;-2.90;99.90;;;;;;5009081;28;20464;-79
2024/01/19 07:11:53;;;;;;;18.08;9.50;;;-2.90;99.90;;;;;;5018932;28;20034;-79
2024/01/19 07:14:18;;;;;;;26.92;12.38;;;-3.00;99.90;;;;;;5008549;28;20018;-79
2024/01/19 07:16:44;;;;;;;20.33;9.38;;;-3.00;99.90;;;;;;5010382;28;20075;-79
2024/01/19 07:19:10;;;;;;;17.90;8.80;;;-3.00;99.90;;;;;;5016359;28;20024;-80
2024/01/19 07:21:42;;;;;;;19.65;8.23;;;-3.00;99.90;;;;;;5021033;28;20025;-79
2024/01/19 07:24:09;;;;;;;17.55;9.20;;;-3.10;99.90;;;;;;5018080;28;20109;-79
2024/01/19 07:26:36;;;;;;;16.58;9.32;;;-3.10;99.90;;;;;;5017597;28;20372;-79
2024/01/19 07:29:06;;;;;;;18.27;9.00;;;-3.20;99.90;;;;;;5016300;28;20024;-80
2024/01/19 07:31:33;;;;;;;16.48;9.73;;;-3.20;99.90;;;;;;5019650;28;20018;-79
2024/01/19 07:33:59;;;;;;;22.48;10.63;;;-3.20;99.90;;;;;;5005720;28;20026;-80
2024/01/19 07:36:25;;;;;;;18.25;9.48;;;-3.20;99.90;;;;;;4999671;28;20033;-80
2024/01/19 07:38:51;;;;;;;21.67;9.52;;;-3.20;99.90;;;;;;5017822;28;20041;-79
2024/01/19 07:41:16;;;;;;;18.95;8.90;;;-3.30;99.90;;;;;;5016232;28;20541;-80
2024/01/19 07:43:42;;;;;;;23.55;11.77;;;-3.20;99.90;;;;;;5005909;28;20042;-79
2024/01/19 07:46:08;;;;;;;20.27;10.35;;;-3.20;99.90;;;;;;5006778;28;20018;-79
2024/01/19 07:48:33;;;;;;;18.25;9.35;;;-3.20;99.90;;;;;;5005452;28;20394;-79
2024/01/19 07:50:59;;;;;;;21.38;11.05;;;-3.20;99.90;;;;;;5009235;28;20033;-78
2024/01/19 07:53:26;;;;;;;25.02;12.43;;;-3.20;99.90;;;;;;5011913;28;20087;-79
2024/01/19 07:55:52;;;;;;;22.85;12.52;;;-3.10;99.90;;;;;;5017581;28;20049;-79
2024/01/19 07:58:17;;;;;;;23.40;10.65;;;-3.10;99.90;;;;;;5017637;28;20110;-79
2024/01/19 08:00:43;;;;;;;24.52;12.43;;;-3.10;99.90;;;;;;5007637;28;20033;-80
2024/01/19 08:03:09;;;;;;;22.75;10.65;;;-3.10;99.90;;;;;;5003326;28;20034;-80
2024/01/19 08:05:35;;;;;;;24.10;12.88;;;-3.10;99.90;;;;;;5008998;28;20076;-79
2024/01/19 08:08:00;;;;;;;21.58;10.07;;;-3.10;99.90;;;;;;5010816;28;20087;-79
2024/01/19 08:10:26;;;;;;;21.67;10.98;;;-3.20;99.90;;;;;;4996598;28;20625;-79
2024/01/19 08:12:52;;;;;;;23.50;10.73;;;-3.10;99.90;;;;;;5010897;28;20064;-79
2024/01/19 08:15:18;;;;;;;23.80;10.93;;;-3.10;99.90;;;;;;5012196;28;20033;-79
2024/01/19 08:17:43;;;;;;;24.85;11.23;;;-3.10;99.90;;;;;;5014745;28;20022;-79
2024/01/19 08:20:12;;;;;;;18.40;9.63;;;-3.10;99.90;;;;;;5020075;28;20487;-79
2024/01/19 08:22:38;;;;;;;21.70;11.77;;;-3.00;99.90;;;;;;5027925;28;20061;-80
2024/01/19 08:25:04;;;;;;;22.13;10.77;;;-2.90;99.90;;;;;;5029490;28;20403;-79
2024/01/19 08:27:30;;;;;;;20.27;11.00;;;-2.80;99.90;;;;;;5028225;28;20032;-80
2024/01/19 08:29:56;;;;;;;21.70;11.93;;;-2.80;99.90;;;;;;5027461;28;20105;-78
2024/01/19 08:32:23;;;;;;;17.77;9.63;;;-2.80;99.90;;;;;;5028035;28;20478;-79
2024/01/19 08:34:49;;;;;;;26.80;12.02;;;-2.80;99.90;;;;;;5027876;28;20112;-79
2024/01/19 08:37:15;;;;;;;20.50;10.40;;;-2.70;99.90;;;;;;5027273;28;20512;-79
2024/01/19 08:39:40;;;;;;;23.85;10.98;;;-2.80;99.90;;;;;;5029058;28;20475;-80
2024/01/19 08:42:06;;;;;;;20.20;10.68;;;-2.90;99.90;;;;;;5028622;28;20041;-80
2024/01/19 08:44:32;;;;;;;25.27;10.75;;;-2.80;99.90;;;;;;5029490;28;20034;-79
2024/01/19 08:46:58;;;;;;;24.80;12.10;;;-2.80;99.90;;;;;;5026485;28;20022;-80
2024/01/19 08:49:26;;;;;;;20.50;11.02;;;-2.80;99.90;;;;;;5026173;28;20387;-79
2024/01/19 08:51:53;;;;;;;19.38;10.75;;;-2.90;99.90;;;;;;5026536;28;20029;-79
2024/01/19 08:54:18;;;;;;;27.90;13.90;;;-2.80;99.90;;;;;;5030316;28;20087;-80
2024/01/19 08:56:44;;;;;;;28.75;11.60;;;-2.90;99.90;;;;;;5029686;28;20025;-80
2024/01/19 08:59:12;;;;;;;28.02;13.05;;;-3.00;99.90;;;;;;5030007;28;20399;-79
2024/01/19 09:01:38;;;;;;;21.92;10.95;;;-2.90;99.90;;;;;;5030590;28;20410;-80
2024/01/19 09:04:03;;;;;;;22.42;12.15;;;-2.80;99.90;;;;;;5022036;28;20044;-79
2024/01/19 09:06:29;;;;;;;23.67;9.63;;;-2.90;99.90;;;;;;5013207;28;20040;-79
2024/01/19 09:08:57;;;;;;;20.35;11.02;;;-2.70;99.90;;;;;;5012110;28;20022;-80
2024/01/19 09:11:23;;;;;;;23.85;10.90;;;-2.70;99.90;;;;;;5012340;28;20090;-79
2024/01/19 09:13:49;;;;;;;22.23;12.30;;;-2.60;99.90;;;;;;5012409;28;20022;-80
2024/01/19 09:16:14;;;;;;;20.75;10.63;;;-2.50;99.90;;;;;;5012087;28;20030;-79
2024/01/19 09:18:41;;;;;;;30.27;12.93;;;-2.60;99.90;;;;;;5011861;28;20105;-79
2024/01/19 09:21:07;;;;;;;27.77;12.07;;;-2.50;99.90;;;;;;5012978;28;20492;-79
2024/01/19 09:23:34;;;;;;;26.65;12.40;;;-2.30;99.90;;;;;;5029589;28;20026;-80
2024/01/19 09:25:59;;;;;;;28.92;11.80;;;-2.40;99.90;;;;;;5027758;28;20021;-80
2024/01/19 09:28:25;;;;;;;26.88;12.82;;;-2.30;99.90;;;;;;5030523;28;20026;-79
2024/01/19 09:30:51;;;;;;;19.92;9.85;;;-2.20;99.90;;;;;;5029010;28;20102;-80
2024/01/19 09:33:16;;;;;;;27.40;10.63;;;-2.10;99.90;;;;;;5029731;28;20043;-79
2024/01/19 09:35:42;;;;;;;21.58;11.05;;;-2.10;99.90;;;;;;5029212;28;20124;-80
2024/01/19 09:38:08;;;;;;;25.25;11.57;;;-2.00;99.90;;;;;;5019544;28;20024;-79
2024/01/19 09:40:34;;;;;;;23.05;11.98;;;-1.90;99.90;;;;;;5028939;28;20082;-79
2024/01/19 09:43:01;;;;;;;22.88;11.52;;;-1.90;99.90;;;;;;5029162;28;20036;-79
2024/01/19 09:45:41;;;;;;;21.00;11.38;;;-1.80;99.90;;;;;;5028883;28;20400;-80
2024/01/19 09:48:31;;;;;;;27.88;12.52;;;-1.90;99.90;;;;;;5017949;28;20022;-79
2024/01/19 09:50:57;;;;;;;24.80;12.80;;;-1.90;99.90;;;;;;5028516;28;20109;-79
2024/01/19 09:53:32;;;;;;;28.13;12.55;;;-1.70;99.90;;;;;;5030511;28;20097;-79
2024/01/19 09:56:01;;;;;;;27.20;13.02;;;-1.70;99.90;;;;;;5028226;28;20498;-79
2024/01/19 09:58:27;;;;;;;28.38;12.82;;;-1.60;99.90;;;;;;5029434;28;20017;-79
2024/01/19 10:00:53;;;;;;;24.30;13.20;;;-1.60;99.90;;;;;;5030221;28;20455;-79
2024/01/19 10:03:19;;;;;;;25.77;12.93;;;-1.60;99.90;;;;;;5015850;28;20050;-80
2024/01/19 10:05:48;;;;;;;30.00;12.68;;;-1.60;99.90;;;;;;5018650;28;20376;-79
2024/01/19 10:08:14;;;;;;;28.50;13.05;;;-1.70;99.90;;;;;;5027336;28;20483;-79
2024/01/19 10:10:44;;;;;;;22.02;12.27;;;-1.70;99.90;;;;;;5021279;28;20018;-79
2024/01/19 10:13:10;;;;;;;30.15;12.82;;;-1.70;99.90;;;;;;5027971;28;20526;-79
2024/01/19 10:15:36;;;;;;;24.65;12.52;;;-1.50;99.90;;;;;;5020370;28;20045;-79
2024/01/19 10:18:03;;;;;;;27.48;13.73;;;-1.40;99.90;;;;;;5015459;28;20053;-79
2024/01/19 10:20:30;;;;;;;27.52;14.55;;;-1.40;99.90;;;;;;5020522;28;20382;-76
2024/01/19 10:22:55;;;;;;;30.65;12.60;;;-1.40;99.90;;;;;;5027914;28;20042;-77
2024/01/19 10:25:21;;;;;;;29.50;13.57;;;-1.30;99.90;;;;;;5010604;28;20026;-79
2024/01/19 10:27:51;;;;;;;27.98;14.13;;;-1.30;99.90;;;;;;5018612;28;20014;-77
2024/01/19 10:30:26;;;;;;;24.92;13.35;;;-1.20;99.90;;;;;;5014294;28;20463;-77
2024/01/19 10:32:53;;;;;;;21.67;12.60;;;-1.10;99.90;;;;;;5011878;28;20490;-79
2024/01/19 10:35:22;;;;;;;26.20;12.48;;;-1.30;99.90;;;;;;5011797;28;20380;-77
2024/01/19 10:37:49;;;;;;;26.88;13.20;;;-1.10;99.90;;;;;;4998794;28;20028;-78
2024/01/19 10:40:22;;;;;;;24.13;12.85;;;-1.10;99.90;;;;;;5010559;28;20031;-78
2024/01/19 10:42:53;;;;;;;22.73;12.00;;;-1.20;99.90;;;;;;5001128;28;20171;-78
2024/01/19 10:45:21;;;;;;;29.85;14.07;;;-1.00;99.90;;;;;;5012599;28;20037;-79
2024/01/19 10:47:49;;;;;;;24.25;12.30;;;-1.10;99.90;;;;;;5007663;28;20041;-79
2024/01/19 10:50:16;;;;;;;25.27;13.30;;;-1.10;99.90;;;;;;5008575;28;20026;-80
2024/01/19 10:52:51;;;;;;;23.77;12.30;;;-1.10;99.90;;;;;;5002409;28;20033;-78
2024/01/19 10:55:22;;;;;;;25.70;12.38;;;-1.10;99.90;;;;;;5006544;28;20026;-78
2024/01/19 10:57:51;;;;;;;26.10;12.02;;;-1.10;99.90;;;;;;5009503;28;20022;-79
2024/01/19 11:00:36;;;;;;;25.67;13.93;;;-1.10;99.90;;;;;;5011058;28;20043;-79
2024/01/19 11:03:03;;;;;;;29.33;13.18;;;-1.30;99.90;;;;;;5014148;28;20498;-79
2024/01/19 11:05:29;;;;;;;25.10;12.30;;;-1.40;99.90;;;;;;5007106;28;20130;-78
2024/01/19 11:07:57;;;;;;;26.05;12.98;;;-1.30;99.90;;;;;;5008468;28;20499;-78
2024/01/19 11:10:25;;;;;;;46.80;23.80;;;-1.30;99.90;;;;;;5009876;28;20025;-79
2024/01/19 11:12:59;;;;;;;179.73;71.82;;;-1.30;99.90;;;;;;5008552;28;20372;-79
2024/01/19 11:15:46;;;;;;;268.45;104.85;;;-1.40;99.90;;;;;;4996976;28;20037;-79
2024/01/19 11:18:11;;;;;;;189.00;74.82;;;-1.40;99.90;;;;;;4998885;28;20056;-79
2024/01/19 11:20:37;;;;;;;91.95;37.90;;;-1.30;99.90;;;;;;5038970;28;20015;-78
2024/01/19 11:23:04;;;;;;;52.80;24.50;;;-1.20;99.90;;;;;;5009158;28;20591;-77
2024/01/19 11:25:48;;;;;;;82.90;28.92;;;-1.10;99.90;;;;;;5035175;28;20396;-78
2024/01/19 11:28:29;;;;;;;86.32;31.98;;;-1.20;99.90;;;;;;5008483;28;20089;-78
2024/01/19 11:31:22;;;;;;;35.15;17.55;;;-1.20;99.90;;;;;;5022990;28;20024;-79
2024/01/19 11:33:48;;;;;;;37.10;17.23;;;-1.20;99.90;;;;;;5010191;28;20592;-78
2024/01/19 11:36:47;;;;;;;37.47;17.50;;;-1.20;99.90;;;;;;5011333;28;20368;-79
2024/01/19 11:39:42;;;;;;;113.93;45.85;;;-1.10;99.90;;;;;;5005686;28;20077;-79
2024/01/19 11:42:09;;;;;;;126.90;47.90;;;-1.10;99.90;;;;;;5023157;28;20050;-79
2024/01/19 11:44:53;;;;;;;134.35;51.67;;;-0.90;99.90;;;;;;4992928;28;20034;-78
2024/01/19 11:47:41;;;;;;;170.02;65.15;;;-1.00;99.90;;;;;;5009075;28;20481;-78
2024/01/19 11:50:09;;;;;;;163.48;66.47;;;-0.80;99.90;;;;;;5004928;28;20364;-79
2024/01/19 11:52:37;;;;;;;202.05;76.35;;;-0.90;99.90;;;;;;5007953;28;20082;-79
2024/01/19 11:55:34;;;;;;;153.07;60.38;;;-0.80;99.90;;;;;;5009640;28;20479;-79
2024/01/19 11:58:29;;;;;;;172.45;71.47;;;-0.90;99.90;;;;;;5001805;28;20034;-79
2024/01/19 12:00:57;;;;;;;157.75;69.93;;;-0.90;99.90;;;;;;5004345;28;20022;-79
2024/01/19 12:03:22;;;;;;;85.40;36.20;;;-0.80;99.90;;;;;;5008308;28;20085;-78
2024/01/19 12:05:49;;;;;;;95.53;41.10;;;-0.80;99.90;;;;;;5008976;28;20077;-79
2024/01/19 12:08:15;;;;;;;113.10;44.10;;;-0.80;99.90;;;;;;5007025;28;20037;-79
2024/01/19 12:10:47;;;;;;;221.65;83.53;;;-0.90;99.90;;;;;;5008530;28;20036;-79
2024/01/19 12:13:13;;;;;;;105.68;41.60;;;-0.80;99.90;;;;;;5007066;28;20501;-79
2024/01/19 12:15:41;;;;;;;43.38;20.17;;;-0.70;99.90;;;;;;5038603;28;20114;-79
2024/01/19 12:18:06;;;;;;;140.10;48.53;;;-0.80;99.90;;;;;;5007119;28;20475;-79
2024/01/19 12:20:32;;;;;;;155.93;66.93;;;-0.90;99.90;;;;;;5008750;28;20028;-79
2024/01/19 12:22:58;;;;;;;159.32;62.38;;;-0.90;99.90;;;;;;5001224;28;20052;-78
2024/01/19 12:25:25;;;;;;;106.05;37.50;;;-1.00;99.90;;;;;;5006596;28;20054;-78